Sidney Richland Municipal Airport Sidney US
ICAO: KSDY
IATA: SDY
Category: Medium
Scheduled Services: No

Elevation: 1985 ft
TransAlt. 18000 ft.

Airport Communications:
AWOS 3:119.275
GREAT FALLS RDO:123.65
CTAF/UNICOM:122.8

KSDY Zoom In..

If you have problems with the map follow the link
https://www.worldairports.se/pages/airport.php?
ICAO=KSDY

Runways:

(A) RW 01 length 5705 ft width 100 ft
---- / hdg 15

(B) RW 11 length 4023 ft width 100 ft
---- / hdg 108

(C) RW 19 length 5705 ft width 100 ft
---- / hdg 195

(D) RW 29 length 4023 ft width 100 ft
---- / hdg 288

Location; KSDY
Day. 20 / Time. 07.56 Zulu
* Altimeter: 30.45
* Temperature: -21° c. 5.8°f.
* Wind from: 000° Speed 00 kn.
Dewpoint: -23° c.
Visibility: 10 Statute Miles.
Clouds: Clear (automated report).

KSDY 200756Z AUTO 00000KT 10SM CLR M21/M23 A3045 RMK AO2 SLP702 T12061233 FZRANO


Wind - Calm.

 
 
jpsmedia worldairports.se 2020   terms of use